sensor_id;sensor_type;location;lat;lon;timestamp;P1;durP1;ratioP1;P2;durP2;ratioP2
65656;SDS011;57397;50.096;14.404;2023-06-10T00:01:38;3.97;;;3.20;;
65656;SDS011;57397;50.096;14.404;2023-06-10T00:04:04;3.47;;;3.17;;
65656;SDS011;57397;50.096;14.404;2023-06-10T00:06:30;4.00;;;2.95;;
65656;SDS011;57397;50.096;14.404;2023-06-10T00:09:00;3.03;;;2.72;;
65656;SDS011;57397;50.096;14.404;2023-06-10T00:11:33;3.30;;;3.00;;
65656;SDS011;57397;50.096;14.404;2023-06-10T00:13:59;5.22;;;2.90;;
65656;SDS011;57397;50.096;14.404;2023-06-10T00:16:25;4.40;;;3.08;;
65656;SDS011;57397;50.096;14.404;2023-06-10T00:18:51;4.65;;;3.22;;
65656;SDS011;57397;50.096;14.404;2023-06-10T00:21:16;5.97;;;2.85;;
65656;SDS011;57397;50.096;14.404;2023-06-10T00:23:42;3.55;;;3.05;;
65656;SDS011;57397;50.096;14.404;2023-06-10T00:26:08;3.30;;;3.00;;
65656;SDS011;57397;50.096;14.404;2023-06-10T00:28:34;5.50;;;3.17;;
65656;SDS011;57397;50.096;14.404;2023-06-10T00:31:00;4.35;;;3.00;;
65656;SDS011;57397;50.096;14.404;2023-06-10T00:33:26;3.85;;;3.00;;
65656;SDS011;57397;50.096;14.404;2023-06-10T00:35:53;3.78;;;3.30;;
65656;SDS011;57397;50.096;14.404;2023-06-10T00:38:18;4.88;;;3.08;;
65656;SDS011;57397;50.096;14.404;2023-06-10T00:40:44;3.97;;;3.10;;
65656;SDS011;57397;50.096;14.404;2023-06-10T00:43:09;3.17;;;2.88;;
65656;SDS011;57397;50.096;14.404;2023-06-10T00:45:35;4.78;;;3.20;;
65656;SDS011;57397;50.096;14.404;2023-06-10T00:48:01;4.03;;;3.03;;
65656;SDS011;57397;50.096;14.404;2023-06-10T00:50:27;4.00;;;3.00;;
65656;SDS011;57397;50.096;14.404;2023-06-10T00:52:53;4.22;;;2.95;;
65656;SDS011;57397;50.096;14.404;2023-06-10T00:55:19;3.53;;;2.80;;
65656;SDS011;57397;50.096;14.404;2023-06-10T00:57:45;4.65;;;3.22;;
65656;SDS011;57397;50.096;14.404;2023-06-10T01:00:13;3.30;;;3.00;;
65656;SDS011;57397;50.096;14.404;2023-06-10T01:02:40;3.75;;;3.10;;
65656;SDS011;57397;50.096;14.404;2023-06-10T01:05:06;3.67;;;3.00;;
65656;SDS011;57397;50.096;14.404;2023-06-10T01:07:40;3.42;;;3.03;;
65656;SDS011;57397;50.096;14.404;2023-06-10T01:10:15;3.17;;;2.88;;
65656;SDS011;57397;50.096;14.404;2023-06-10T01:12:58;3.45;;;2.90;;
65656;SDS011;57397;50.096;14.404;2023-06-10T01:15:27;4.20;;;3.20;;
65656;SDS011;57397;50.096;14.404;2023-06-10T01:17:57;5.65;;;3.13;;
65656;SDS011;57397;50.096;14.404;2023-06-10T01:20:40;4.32;;;2.95;;
65656;SDS011;57397;50.096;14.404;2023-06-10T01:23:07;3.30;;;3.00;;
65656;SDS011;57397;50.096;14.404;2023-06-10T01:25:33;3.30;;;3.00;;
65656;SDS011;57397;50.096;14.404;2023-06-10T01:33:45;3.15;;;2.85;;
65656;SDS011;57397;50.096;14.404;2023-06-10T01:36:12;4.22;;;2.88;;
65656;SDS011;57397;50.096;14.404;2023-06-10T01:38:44;3.40;;;2.95;;
65656;SDS011;57397;50.096;14.404;2023-06-10T01:41:15;3.83;;;3.40;;
65656;SDS011;57397;50.096;14.404;2023-06-10T01:43:42;3.60;;;2.90;;
65656;SDS011;57397;50.096;14.404;2023-06-10T01:46:09;3.63;;;3.10;;
65656;SDS011;57397;50.096;14.404;2023-06-10T01:48:35;3.40;;;2.92;;
65656;SDS011;57397;50.096;14.404;2023-06-10T01:51:02;3.45;;;3.15;;
65656;SDS011;57397;50.096;14.404;2023-06-10T01:53:28;5.22;;;2.92;;
65656;SDS011;57397;50.096;14.404;2023-06-10T01:55:53;3.20;;;2.83;;
65656;SDS011;57397;50.096;14.404;2023-06-10T01:58:19;3.33;;;3.03;;
65656;SDS011;57397;50.096;14.404;2023-06-10T02:00:44;4.07;;;3.00;;
65656;SDS011;57397;50.096;14.404;2023-06-10T02:03:10;3.58;;;3.00;;
65656;SDS011;57397;50.096;14.404;2023-06-10T02:05:35;4.65;;;2.97;;
65656;SDS011;57397;50.096;14.404;2023-06-10T02:08:01;3.47;;;3.15;;
65656;SDS011;57397;50.096;14.404;2023-06-10T02:10:28;3.30;;;3.00;;
65656;SDS011;57397;50.096;14.404;2023-06-10T02:12:54;3.53;;;3.22;;
65656;SDS011;57397;50.096;14.404;2023-06-10T02:15:20;4.28;;;3.10;;
65656;SDS011;57397;50.096;14.404;2023-06-10T02:17:45;3.63;;;2.90;;
65656;SDS011;57397;50.096;14.404;2023-06-10T02:20:12;4.93;;;2.90;;
65656;SDS011;57397;50.096;14.404;2023-06-10T02:22:38;3.58;;;2.88;;
65656;SDS011;57397;50.096;14.404;2023-06-10T02:25:04;4.60;;;3.08;;
65656;SDS011;57397;50.096;14.404;2023-06-10T02:27:30;3.80;;;3.10;;
65656;SDS011;57397;50.096;14.404;2023-06-10T02:29:56;3.60;;;3.00;;
65656;SDS011;57397;50.096;14.404;2023-06-10T02:32:22;3.83;;;3.13;;
65656;SDS011;57397;50.096;14.404;2023-06-10T02:34:48;4.80;;;3.08;;
65656;SDS011;57397;50.096;14.404;2023-06-10T02:37:16;4.60;;;3.08;;
65656;SDS011;57397;50.096;14.404;2023-06-10T02:39:42;3.30;;;3.00;;
65656;SDS011;57397;50.096;14.404;2023-06-10T02:42:08;3.40;;;2.90;;
65656;SDS011;57397;50.096;14.404;2023-06-10T02:44:33;4.10;;;2.88;;
65656;SDS011;57397;50.096;14.404;2023-06-10T02:46:59;4.60;;;3.22;;
65656;SDS011;57397;50.096;14.404;2023-06-10T02:49:25;4.18;;;3.10;;
65656;SDS011;57397;50.096;14.404;2023-06-10T02:51:52;3.75;;;3.30;;
65656;SDS011;57397;50.096;14.404;2023-06-10T02:54:21;3.65;;;2.88;;
65656;SDS011;57397;50.096;14.404;2023-06-10T02:56:47;4.20;;;3.30;;
65656;SDS011;57397;50.096;14.404;2023-06-10T02:59:13;4.22;;;2.97;;
65656;SDS011;57397;50.096;14.404;2023-06-10T03:01:39;3.53;;;2.80;;
65656;SDS011;57397;50.096;14.404;2023-06-10T03:04:05;3.70;;;3.28;;
65656;SDS011;57397;50.096;14.404;2023-06-10T03:06:31;4.10;;;3.22;;
65656;SDS011;57397;50.096;14.404;2023-06-10T03:08:59;4.40;;;3.13;;
65656;SDS011;57397;50.096;14.404;2023-06-10T03:11:25;4.25;;;2.95;;
65656;SDS011;57397;50.096;14.404;2023-06-10T03:13:51;3.67;;;3.10;;
65656;SDS011;57397;50.096;14.404;2023-06-10T03:16:17;4.95;;;3.00;;
65656;SDS011;57397;50.096;14.404;2023-06-10T03:18:43;3.17;;;2.58;;
65656;SDS011;57397;50.096;14.404;2023-06-10T03:21:09;3.40;;;3.10;;
65656;SDS011;57397;50.096;14.404;2023-06-10T03:23:34;3.65;;;3.17;;
65656;SDS011;57397;50.096;14.404;2023-06-10T03:26:00;3.47;;;3.08;;
65656;SDS011;57397;50.096;14.404;2023-06-10T03:28:25;3.20;;;2.88;;
65656;SDS011;57397;50.096;14.404;2023-06-10T03:30:51;3.65;;;3.05;;
65656;SDS011;57397;50.096;14.404;2023-06-10T03:33:16;3.30;;;3.00;;
65656;SDS011;57397;50.096;14.404;2023-06-10T03:35:42;4.00;;;3.05;;
65656;SDS011;57397;50.096;14.404;2023-06-10T03:38:07;3.92;;;3.50;;
65656;SDS011;57397;50.096;14.404;2023-06-10T03:40:33;4.28;;;3.30;;
65656;SDS011;57397;50.096;14.404;2023-06-10T03:42:59;3.30;;;2.90;;
65656;SDS011;57397;50.096;14.404;2023-06-10T03:45:25;4.53;;;3.00;;
65656;SDS011;57397;50.096;14.404;2023-06-10T03:47:53;3.60;;;3.10;;
65656;SDS011;57397;50.096;14.404;2023-06-10T03:50:18;3.28;;;2.97;;
65656;SDS011;57397;50.096;14.404;2023-06-10T03:52:44;4.25;;;3.10;;
65656;SDS011;57397;50.096;14.404;2023-06-10T03:55:10;3.25;;;2.95;;
65656;SDS011;57397;50.096;14.404;2023-06-10T03:57:38;3.60;;;3.30;;
65656;SDS011;57397;50.096;14.404;2023-06-10T04:00:04;3.88;;;2.90;;
65656;SDS011;57397;50.096;14.404;2023-06-10T04:02:36;5.25;;;3.10;;
65656;SDS011;57397;50.096;14.404;2023-06-10T04:05:02;3.33;;;3.03;;
65656;SDS011;57397;50.096;14.404;2023-06-10T04:07:28;3.35;;;3.05;;
65656;SDS011;57397;50.096;14.404;2023-06-10T04:09:53;3.75;;;2.85;;
65656;SDS011;57397;50.096;14.404;2023-06-10T04:12:19;3.50;;;3.13;;
65656;SDS011;57397;50.096;14.404;2023-06-10T04:14:44;3.65;;;3.20;;
65656;SDS011;57397;50.096;14.404;2023-06-10T04:17:10;4.28;;;3.38;;
65656;SDS011;57397;50.096;14.404;2023-06-10T04:19:35;3.55;;;3.25;;
65656;SDS011;57397;50.096;14.404;2023-06-10T04:22:01;3.65;;;3.10;;
65656;SDS011;57397;50.096;14.404;2023-06-10T04:24:30;3.58;;;3.28;;
65656;SDS011;57397;50.096;14.404;2023-06-10T04:26:56;3.83;;;3.35;;
65656;SDS011;57397;50.096;14.404;2023-06-10T04:29:21;4.03;;;3.47;;
65656;SDS011;57397;50.096;14.404;2023-06-10T04:31:47;3.55;;;3.25;;
65656;SDS011;57397;50.096;14.404;2023-06-10T04:34:12;4.80;;;3.45;;
65656;SDS011;57397;50.096;14.404;2023-06-10T04:36:38;4.20;;;3.60;;
65656;SDS011;57397;50.096;14.404;2023-06-10T04:39:04;3.42;;;2.97;;
65656;SDS011;57397;50.096;14.404;2023-06-10T04:41:30;4.22;;;3.42;;
65656;SDS011;57397;50.096;14.404;2023-06-10T04:43:56;4.10;;;3.33;;
65656;SDS011;57397;50.096;14.404;2023-06-10T04:46:23;3.53;;;3.22;;
65656;SDS011;57397;50.096;14.404;2023-06-10T04:48:49;4.38;;;3.28;;
65656;SDS011;57397;50.096;14.404;2023-06-10T04:51:15;3.85;;;3.45;;
65656;SDS011;57397;50.096;14.404;2023-06-10T04:53:40;3.78;;;3.30;;
65656;SDS011;57397;50.096;14.404;2023-06-10T04:56:06;3.53;;;3.10;;
65656;SDS011;57397;50.096;14.404;2023-06-10T04:58:33;3.67;;;3.15;;
65656;SDS011;57397;50.096;14.404;2023-06-10T05:00:58;3.30;;;3.00;;
65656;SDS011;57397;50.096;14.404;2023-06-10T05:03:25;3.55;;;3.17;;
65656;SDS011;57397;50.096;14.404;2023-06-10T05:05:51;3.60;;;3.30;;
65656;SDS011;57397;50.096;14.404;2023-06-10T05:08:16;3.42;;;3.13;;
65656;SDS011;57397;50.096;14.404;2023-06-10T05:10:43;3.15;;;2.85;;
65656;SDS011;57397;50.096;14.404;2023-06-10T05:13:08;3.53;;;3.22;;
65656;SDS011;57397;50.096;14.404;2023-06-10T05:15:34;3.67;;;3.35;;
65656;SDS011;57397;50.096;14.404;2023-06-10T05:18:00;4.10;;;3.28;;
65656;SDS011;57397;50.096;14.404;2023-06-10T05:20:27;3.72;;;3.35;;
65656;SDS011;57397;50.096;14.404;2023-06-10T05:22:53;4.28;;;3.13;;
65656;SDS011;57397;50.096;14.404;2023-06-10T05:25:19;4.15;;;3.30;;
65656;SDS011;57397;50.096;14.404;2023-06-10T05:27:45;4.07;;;3.10;;
65656;SDS011;57397;50.096;14.404;2023-06-10T05:30:10;3.50;;;3.20;;
65656;SDS011;57397;50.096;14.404;2023-06-10T05:32:36;4.13;;;3.40;;
65656;SDS011;57397;50.096;14.404;2023-06-10T05:35:02;3.70;;;3.40;;
65656;SDS011;57397;50.096;14.404;2023-06-10T05:37:29;4.57;;;3.55;;
65656;SDS011;57397;50.096;14.404;2023-06-10T05:39:55;4.82;;;3.38;;
65656;SDS011;57397;50.096;14.404;2023-06-10T05:42:20;3.88;;;3.33;;
65656;SDS011;57397;50.096;14.404;2023-06-10T05:44:46;3.92;;;3.35;;
65656;SDS011;57397;50.096;14.404;2023-06-10T05:47:11;3.65;;;3.10;;
65656;SDS011;57397;50.096;14.404;2023-06-10T05:49:37;3.42;;;3.13;;
65656;SDS011;57397;50.096;14.404;2023-06-10T05:52:03;4.45;;;3.30;;
65656;SDS011;57397;50.096;14.404;2023-06-10T05:54:28;3.70;;;3.40;;
65656;SDS011;57397;50.096;14.404;2023-06-10T05:56:54;4.03;;;3.33;;
65656;SDS011;57397;50.096;14.404;2023-06-10T05:59:21;3.55;;;3.20;;
65656;SDS011;57397;50.096;14.404;2023-06-10T06:01:48;3.53;;;3.22;;
65656;SDS011;57397;50.096;14.404;2023-06-10T06:04:14;4.72;;;3.33;;
65656;SDS011;57397;50.096;14.404;2023-06-10T06:06:40;3.65;;;3.33;;
65656;SDS011;57397;50.096;14.404;2023-06-10T06:09:06;3.40;;;3.10;;
65656;SDS011;57397;50.096;14.404;2023-06-10T06:11:33;3.30;;;3.00;;
65656;SDS011;57397;50.096;14.404;2023-06-10T06:13:59;3.90;;;3.40;;
65656;SDS011;57397;50.096;14.404;2023-06-10T06:16:24;4.10;;;3.38;;
65656;SDS011;57397;50.096;14.404;2023-06-10T06:18:50;3.67;;;3.38;;
65656;SDS011;57397;50.096;14.404;2023-06-10T06:21:15;3.65;;;3.13;;
65656;SDS011;57397;50.096;14.404;2023-06-10T06:23:41;3.95;;;3.65;;
65656;SDS011;57397;50.096;14.404;2023-06-10T06:26:06;3.67;;;3.33;;
65656;SDS011;57397;50.096;14.404;2023-06-10T06:28:32;3.80;;;3.40;;
65656;SDS011;57397;50.096;14.404;2023-06-10T06:30:57;4.00;;;3.60;;
65656;SDS011;57397;50.096;14.404;2023-06-10T06:33:23;3.80;;;3.40;;
65656;SDS011;57397;50.096;14.404;2023-06-10T06:35:48;3.60;;;3.00;;
65656;SDS011;57397;50.096;14.404;2023-06-10T06:38:14;3.78;;;3.40;;
65656;SDS011;57397;50.096;14.404;2023-06-10T06:40:39;3.47;;;3.17;;
65656;SDS011;57397;50.096;14.404;2023-06-10T06:43:05;4.25;;;3.50;;
65656;SDS011;57397;50.096;14.404;2023-06-10T06:45:30;4.18;;;3.70;;
65656;SDS011;57397;50.096;14.404;2023-06-10T06:47:56;4.00;;;3.60;;
65656;SDS011;57397;50.096;14.404;2023-06-10T06:50:21;3.83;;;3.40;;
65656;SDS011;57397;50.096;14.404;2023-06-10T06:52:47;3.63;;;3.33;;
65656;SDS011;57397;50.096;14.404;2023-06-10T06:55:12;3.80;;;3.40;;
65656;SDS011;57397;50.096;14.404;2023-06-10T06:57:38;4.22;;;3.70;;
65656;SDS011;57397;50.096;14.404;2023-06-10T07:00:04;3.90;;;3.50;;
65656;SDS011;57397;50.096;14.404;2023-06-10T07:02:30;4.05;;;3.45;;
65656;SDS011;57397;50.096;14.404;2023-06-10T07:04:57;3.97;;;3.53;;
65656;SDS011;57397;50.096;14.404;2023-06-10T07:07:24;3.70;;;3.40;;
65656;SDS011;57397;50.096;14.404;2023-06-10T07:09:49;3.88;;;3.45;;
65656;SDS011;57397;50.096;14.404;2023-06-10T07:12:15;5.22;;;3.85;;
65656;SDS011;57397;50.096;14.404;2023-06-10T07:14:41;4.65;;;3.55;;
65656;SDS011;57397;50.096;14.404;2023-06-10T07:17:06;4.10;;;3.50;;
65656;SDS011;57397;50.096;14.404;2023-06-10T07:19:32;4.00;;;3.60;;
65656;SDS011;57397;50.096;14.404;2023-06-10T07:21:57;3.97;;;3.33;;
65656;SDS011;57397;50.096;14.404;2023-06-10T07:24:23;4.10;;;3.67;;
65656;SDS011;57397;50.096;14.404;2023-06-10T07:26:50;3.95;;;3.55;;
65656;SDS011;57397;50.096;14.404;2023-06-10T07:29:16;4.25;;;3.75;;
65656;SDS011;57397;50.096;14.404;2023-06-10T07:31:41;3.78;;;3.40;;
65656;SDS011;57397;50.096;14.404;2023-06-10T07:34:07;4.00;;;3.60;;
65656;SDS011;57397;50.096;14.404;2023-06-10T07:36:33;4.15;;;3.75;;
65656;SDS011;57397;50.096;14.404;2023-06-10T07:38:59;4.15;;;3.75;;
65656;SDS011;57397;50.096;14.404;2023-06-10T07:41:25;3.85;;;3.42;;
65656;SDS011;57397;50.096;14.404;2023-06-10T07:43:52;4.50;;;3.45;;
65656;SDS011;57397;50.096;14.404;2023-06-10T07:46:20;3.70;;;3.38;;
65656;SDS011;57397;50.096;14.404;2023-06-10T07:48:46;4.10;;;3.70;;
65656;SDS011;57397;50.096;14.404;2023-06-10T07:51:14;3.80;;;3.40;;
65656;SDS011;57397;50.096;14.404;2023-06-10T07:53:41;4.43;;;3.63;;
65656;SDS011;57397;50.096;14.404;2023-06-10T07:56:07;3.83;;;3.42;;
65656;SDS011;57397;50.096;14.404;2023-06-10T07:58:33;3.78;;;3.40;;
65656;SDS011;57397;50.096;14.404;2023-06-10T08:00:59;3.90;;;3.50;;
65656;SDS011;57397;50.096;14.404;2023-06-10T08:03:25;4.30;;;3.40;;
65656;SDS011;57397;50.096;14.404;2023-06-10T08:05:51;4.32;;;3.83;;
65656;SDS011;57397;50.096;14.404;2023-06-10T08:08:16;3.83;;;3.40;;
65656;SDS011;57397;50.096;14.404;2023-06-10T08:10:42;3.60;;;3.30;;
65656;SDS011;57397;50.096;14.404;2023-06-10T08:13:08;3.47;;;3.08;;
65656;SDS011;57397;50.096;14.404;2023-06-10T08:15:34;3.47;;;3.17;;
65656;SDS011;57397;50.096;14.404;2023-06-10T08:17:59;4.10;;;3.70;;
65656;SDS011;57397;50.096;14.404;2023-06-10T08:20:25;4.13;;;3.60;;
65656;SDS011;57397;50.096;14.404;2023-06-10T08:22:50;4.05;;;3.50;;
65656;SDS011;57397;50.096;14.404;2023-06-10T08:25:16;3.83;;;3.42;;
65656;SDS011;57397;50.096;14.404;2023-06-10T08:27:42;4.13;;;3.72;;
65656;SDS011;57397;50.096;14.404;2023-06-10T08:30:07;3.95;;;3.55;;
65656;SDS011;57397;50.096;14.404;2023-06-10T08:32:35;5.57;;;3.50;;
65656;SDS011;57397;50.096;14.404;2023-06-10T08:35:01;3.78;;;3.40;;
65656;SDS011;57397;50.096;14.404;2023-06-10T08:37:27;3.50;;;3.20;;
65656;SDS011;57397;50.096;14.404;2023-06-10T08:39:53;3.80;;;3.50;;
65656;SDS011;57397;50.096;14.404;2023-06-10T08:44:53;3.70;;;3.40;;
65656;SDS011;57397;50.096;14.404;2023-06-10T08:47:25;3.70;;;3.38;;
65656;SDS011;57397;50.096;14.404;2023-06-10T08:49:56;3.60;;;3.15;;
65656;SDS011;57397;50.096;14.404;2023-06-10T08:52:27;3.60;;;3.17;;
65656;SDS011;57397;50.096;14.404;2023-06-10T08:57:29;3.33;;;3.03;;
65656;SDS011;57397;50.096;14.404;2023-06-10T08:59:56;4.00;;;3.60;;
65656;SDS011;57397;50.096;14.404;2023-06-10T09:02:23;4.22;;;3.50;;
65656;SDS011;57397;50.096;14.404;2023-06-10T09:04:49;3.83;;;3.38;;
65656;SDS011;57397;50.096;14.404;2023-06-10T09:07:16;3.85;;;3.45;;
65656;SDS011;57397;50.096;14.404;2023-06-10T09:09:43;4.30;;;3.90;;
65656;SDS011;57397;50.096;14.404;2023-06-10T09:12:09;3.95;;;3.50;;
65656;SDS011;57397;50.096;14.404;2023-06-10T09:14:35;3.97;;;3.58;;
65656;SDS011;57397;50.096;14.404;2023-06-10T09:17:01;3.65;;;3.35;;
65656;SDS011;57397;50.096;14.404;2023-06-10T09:19:28;4.03;;;3.63;;
65656;SDS011;57397;50.096;14.404;2023-06-10T09:21:55;4.00;;;3.60;;
65656;SDS011;57397;50.096;14.404;2023-06-10T09:24:22;3.72;;;3.33;;
65656;SDS011;57397;50.096;14.404;2023-06-10T09:26:48;3.88;;;3.40;;
65656;SDS011;57397;50.096;14.404;2023-06-10T09:29:14;3.83;;;3.42;;
65656;SDS011;57397;50.096;14.404;2023-06-10T09:31:39;3.83;;;3.42;;
65656;SDS011;57397;50.096;14.404;2023-06-10T09:34:08;3.78;;;3.47;;
65656;SDS011;57397;50.096;14.404;2023-06-10T09:36:35;3.67;;;3.28;;
65656;SDS011;57397;50.096;14.404;2023-06-10T09:39:02;4.15;;;3.75;;
65656;SDS011;57397;50.096;14.404;2023-06-10T09:41:34;4.60;;;4.07;;
65656;SDS011;57397;50.096;14.404;2023-06-10T09:44:00;4.15;;;3.75;;
65656;SDS011;57397;50.096;14.404;2023-06-10T09:46:29;4.90;;;4.10;;
65656;SDS011;57397;50.096;14.404;2023-06-10T09:48:58;4.70;;;4.18;;
65656;SDS011;57397;50.096;14.404;2023-06-10T09:51:23;4.10;;;3.67;;
65656;SDS011;57397;50.096;14.404;2023-06-10T09:53:52;3.78;;;3.47;;
65656;SDS011;57397;50.096;14.404;2023-06-10T09:56:18;4.32;;;3.80;;
65656;SDS011;57397;50.096;14.404;2023-06-10T09:58:45;4.65;;;3.63;;
65656;SDS011;57397;50.096;14.404;2023-06-10T10:01:12;4.03;;;3.63;;
65656;SDS011;57397;50.096;14.404;2023-06-10T10:06:16;4.32;;;3.92;;
65656;SDS011;57397;50.096;14.404;2023-06-10T10:08:43;3.63;;;3.30;;
65656;SDS011;57397;50.096;14.404;2023-06-10T10:11:09;4.00;;;3.60;;
65656;SDS011;57397;50.096;14.404;2023-06-10T10:13:35;4.63;;;3.70;;
65656;SDS011;57397;50.096;14.404;2023-06-10T10:16:14;4.10;;;3.47;;
65656;SDS011;57397;50.096;14.404;2023-06-10T10:18:45;4.97;;;4.28;;
65656;SDS011;57397;50.096;14.404;2023-06-10T10:21:15;4.07;;;3.67;;
65656;SDS011;57397;50.096;14.404;2023-06-10T10:23:47;4.22;;;3.83;;
65656;SDS011;57397;50.096;14.404;2023-06-10T10:26:34;4.35;;;3.80;;
65656;SDS011;57397;50.096;14.404;2023-06-10T10:29:10;3.88;;;3.47;;
65656;SDS011;57397;50.096;14.404;2023-06-10T10:31:36;3.70;;;3.33;;
65656;SDS011;57397;50.096;14.404;2023-06-10T10:34:07;4.07;;;3.67;;
65656;SDS011;57397;50.096;14.404;2023-06-10T10:36:34;3.60;;;3.30;;
65656;SDS011;57397;50.096;14.404;2023-06-10T10:39:01;4.25;;;3.85;;
65656;SDS011;57397;50.096;14.404;2023-06-10T10:41:28;5.28;;;4.32;;
65656;SDS011;57397;50.096;14.404;2023-06-10T10:43:55;4.53;;;4.13;;
65656;SDS011;57397;50.096;14.404;2023-06-10T10:46:21;4.85;;;4.35;;
65656;SDS011;57397;50.096;14.404;2023-06-10T10:48:50;4.50;;;4.10;;
65656;SDS011;57397;50.096;14.404;2023-06-10T10:51:17;4.63;;;4.18;;
65656;SDS011;57397;50.096;14.404;2023-06-10T10:53:43;4.38;;;3.97;;
65656;SDS011;57397;50.096;14.404;2023-06-10T10:56:14;4.60;;;4.07;;
65656;SDS011;57397;50.096;14.404;2023-06-10T10:58:40;6.18;;;4.70;;
65656;SDS011;57397;50.096;14.404;2023-06-10T11:01:12;5.32;;;4.38;;
65656;SDS011;57397;50.096;14.404;2023-06-10T11:03:43;4.85;;;4.28;;
65656;SDS011;57397;50.096;14.404;2023-06-10T11:06:17;4.85;;;4.20;;
65656;SDS011;57397;50.096;14.404;2023-06-10T11:11:25;4.75;;;4.18;;
65656;SDS011;57397;50.096;14.404;2023-06-10T11:18:55;4.65;;;4.20;;
65656;SDS011;57397;50.096;14.404;2023-06-10T11:21:24;5.00;;;4.50;;
65656;SDS011;57397;50.096;14.404;2023-06-10T11:23:53;6.38;;;4.35;;
65656;SDS011;57397;50.096;14.404;2023-06-10T11:31:23;5.70;;;4.65;;
65656;SDS011;57397;50.096;14.404;2023-06-10T11:33:52;5.50;;;4.78;;
65656;SDS011;57397;50.096;14.404;2023-06-10T11:36:18;4.78;;;4.28;;
65656;SDS011;57397;50.096;14.404;2023-06-10T11:38:45;5.63;;;4.40;;
65656;SDS011;57397;50.096;14.404;2023-06-10T11:41:13;5.50;;;4.18;;
65656;SDS011;57397;50.096;14.404;2023-06-10T11:43:45;5.20;;;4.70;;
65656;SDS011;57397;50.096;14.404;2023-06-10T11:46:11;5.88;;;4.53;;
65656;SDS011;57397;50.096;14.404;2023-06-10T11:48:37;5.90;;;4.50;;
65656;SDS011;57397;50.096;14.404;2023-06-10T11:51:09;4.80;;;4.28;;
65656;SDS011;57397;50.096;14.404;2023-06-10T11:53:34;4.68;;;4.10;;
65656;SDS011;57397;50.096;14.404;2023-06-10T11:56:00;5.32;;;4.82;;
65656;SDS011;57397;50.096;14.404;2023-06-10T11:58:26;5.28;;;4.18;;
65656;SDS011;57397;50.096;14.404;2023-06-10T12:00:52;4.72;;;4.22;;
65656;SDS011;57397;50.096;14.404;2023-06-10T12:03:19;5.05;;;4.55;;
65656;SDS011;57397;50.096;14.404;2023-06-10T12:06:00;5.80;;;4.85;;
65656;SDS011;57397;50.096;14.404;2023-06-10T12:08:27;4.13;;;3.72;;
65656;SDS011;57397;50.096;14.404;2023-06-10T12:10:53;4.78;;;4.15;;
65656;SDS011;57397;50.096;14.404;2023-06-10T12:13:19;5.93;;;4.40;;
65656;SDS011;57397;50.096;14.404;2023-06-10T12:15:45;4.85;;;4.43;;
65656;SDS011;57397;50.096;14.404;2023-06-10T12:18:18;5.07;;;4.32;;
65656;SDS011;57397;50.096;14.404;2023-06-10T12:20:45;4.40;;;4.00;;
65656;SDS011;57397;50.096;14.404;2023-06-10T12:23:11;5.28;;;4.30;;
65656;SDS011;57397;50.096;14.404;2023-06-10T12:25:37;5.30;;;4.70;;
65656;SDS011;57397;50.096;14.404;2023-06-10T12:28:03;5.13;;;4.38;;
65656;SDS011;57397;50.096;14.404;2023-06-10T12:30:29;4.90;;;4.03;;
65656;SDS011;57397;50.096;14.404;2023-06-10T12:32:55;4.80;;;4.30;;
65656;SDS011;57397;50.096;14.404;2023-06-10T12:35:24;5.53;;;4.35;;
65656;SDS011;57397;50.096;14.404;2023-06-10T12:38:01;4.65;;;4.25;;
65656;SDS011;57397;50.096;14.404;2023-06-10T12:40:36;4.93;;;4.43;;
65656;SDS011;57397;50.096;14.404;2023-06-10T12:43:05;5.13;;;4.50;;
65656;SDS011;57397;50.096;14.404;2023-06-10T12:45:31;4.90;;;4.40;;
65656;SDS011;57397;50.096;14.404;2023-06-10T12:48:10;5.90;;;4.97;;
65656;SDS011;57397;50.096;14.404;2023-06-10T12:50:52;6.70;;;4.45;;
65656;SDS011;57397;50.096;14.404;2023-06-10T12:53:20;5.28;;;4.78;;
65656;SDS011;57397;50.096;14.404;2023-06-10T12:55:50;5.63;;;4.47;;
65656;SDS011;57397;50.096;14.404;2023-06-10T12:58:15;4.90;;;4.40;;
65656;SDS011;57397;50.096;14.404;2023-06-10T13:00:42;5.38;;;4.55;;
65656;SDS011;57397;50.096;14.404;2023-06-10T13:03:09;4.68;;;4.20;;
65656;SDS011;57397;50.096;14.404;2023-06-10T13:05:35;5.75;;;4.45;;
65656;SDS011;57397;50.096;14.404;2023-06-10T13:08:03;4.78;;;4.38;;
65656;SDS011;57397;50.096;14.404;2023-06-10T13:10:32;4.75;;;4.22;;
65656;SDS011;57397;50.096;14.404;2023-06-10T13:12:59;5.38;;;4.70;;
65656;SDS011;57397;50.096;14.404;2023-06-10T13:15:25;4.82;;;3.90;;
65656;SDS011;57397;50.096;14.404;2023-06-10T13:17:51;4.97;;;4.30;;
65656;SDS011;57397;50.096;14.404;2023-06-10T13:20:19;4.50;;;4.07;;
65656;SDS011;57397;50.096;14.404;2023-06-10T13:22:45;4.85;;;4.25;;
65656;SDS011;57397;50.096;14.404;2023-06-10T13:25:13;4.53;;;4.05;;
65656;SDS011;57397;50.096;14.404;2023-06-10T13:27:39;5.25;;;4.47;;
65656;SDS011;57397;50.096;14.404;2023-06-10T13:30:05;5.03;;;4.53;;
65656;SDS011;57397;50.096;14.404;2023-06-10T13:32:31;5.10;;;4.53;;
65656;SDS011;57397;50.096;14.404;2023-06-10T13:34:57;4.97;;;4.45;;
65656;SDS011;57397;50.096;14.404;2023-06-10T13:37:23;5.85;;;4.57;;
65656;SDS011;57397;50.096;14.404;2023-06-10T13:39:48;5.05;;;4.30;;
65656;SDS011;57397;50.096;14.404;2023-06-10T13:42:18;5.40;;;4.45;;
65656;SDS011;57397;50.096;14.404;2023-06-10T13:44:45;4.63;;;4.18;;
65656;SDS011;57397;50.096;14.404;2023-06-10T13:47:10;5.40;;;4.60;;
65656;SDS011;57397;50.096;14.404;2023-06-10T13:49:36;4.38;;;3.97;;
65656;SDS011;57397;50.096;14.404;2023-06-10T13:52:02;4.38;;;3.97;;
65656;SDS011;57397;50.096;14.404;2023-06-10T13:54:28;5.13;;;4.20;;
65656;SDS011;57397;50.096;14.404;2023-06-10T13:56:54;3.92;;;3.63;;
65656;SDS011;57397;50.096;14.404;2023-06-10T13:59:20;4.97;;;4.47;;
65656;SDS011;57397;50.096;14.404;2023-06-10T14:01:46;4.40;;;4.00;;
65656;SDS011;57397;50.096;14.404;2023-06-10T14:04:12;4.85;;;4.35;;
65656;SDS011;57397;50.096;14.404;2023-06-10T14:06:39;5.38;;;4.45;;
65656;SDS011;57397;50.096;14.404;2023-06-10T14:09:05;5.43;;;4.30;;
65656;SDS011;57397;50.096;14.404;2023-06-10T14:11:30;5.40;;;4.90;;
65656;SDS011;57397;50.096;14.404;2023-06-10T14:13:56;4.53;;;3.88;;
65656;SDS011;57397;50.096;14.404;2023-06-10T14:16:22;5.07;;;4.57;;
65656;SDS011;57397;50.096;14.404;2023-06-10T14:18:48;4.80;;;4.13;;
65656;SDS011;57397;50.096;14.404;2023-06-10T14:21:15;4.80;;;4.32;;
65656;SDS011;57397;50.096;14.404;2023-06-10T14:23:41;4.57;;;4.18;;
65656;SDS011;57397;50.096;14.404;2023-06-10T14:26:08;5.10;;;4.60;;
65656;SDS011;57397;50.096;14.404;2023-06-10T14:28:34;4.78;;;4.20;;
65656;SDS011;57397;50.096;14.404;2023-06-10T14:30:59;4.47;;;4.07;;
65656;SDS011;57397;50.096;14.404;2023-06-10T14:33:25;4.60;;;4.20;;
65656;SDS011;57397;50.096;14.404;2023-06-10T14:35:50;4.78;;;4.38;;
65656;SDS011;57397;50.096;14.404;2023-06-10T14:38:16;5.00;;;4.47;;
65656;SDS011;57397;50.096;14.404;2023-06-10T14:40:42;4.60;;;4.20;;
65656;SDS011;57397;50.096;14.404;2023-06-10T14:43:08;4.55;;;4.13;;
65656;SDS011;57397;50.096;14.404;2023-06-10T14:45:36;4.90;;;4.20;;
65656;SDS011;57397;50.096;14.404;2023-06-10T14:48:03;4.70;;;4.28;;
65656;SDS011;57397;50.096;14.404;2023-06-10T14:50:29;4.88;;;4.15;;
65656;SDS011;57397;50.096;14.404;2023-06-10T14:52:55;4.60;;;4.05;;
65656;SDS011;57397;50.096;14.404;2023-06-10T14:55:20;4.35;;;3.95;;
65656;SDS011;57397;50.096;14.404;2023-06-10T14:57:48;5.35;;;4.63;;